sensor_id;sensor_type;location;lat;lon;timestamp;P1;durP1;ratioP1;P2;durP2;ratioP2
15952;SDS011;8075;47.766;8.846;2024-01-11T00:01:28;57.38;;;30.38;;
15952;SDS011;8075;47.766;8.846;2024-01-11T00:03:54;57.07;;;30.73;;
15952;SDS011;8075;47.766;8.846;2024-01-11T00:06:20;65.25;;;34.78;;
15952;SDS011;8075;47.766;8.846;2024-01-11T00:08:46;47.00;;;26.48;;
15952;SDS011;8075;47.766;8.846;2024-01-11T00:11:12;48.45;;;26.60;;
15952;SDS011;8075;47.766;8.846;2024-01-11T00:13:38;49.25;;;25.92;;
15952;SDS011;8075;47.766;8.846;2024-01-11T00:16:04;48.55;;;26.75;;
15952;SDS011;8075;47.766;8.846;2024-01-11T00:18:30;49.55;;;27.75;;
15952;SDS011;8075;47.766;8.846;2024-01-11T00:20:56;49.38;;;27.60;;
15952;SDS011;8075;47.766;8.846;2024-01-11T00:23:22;45.70;;;26.70;;
15952;SDS011;8075;47.766;8.846;2024-01-11T00:25:48;43.85;;;24.90;;
15952;SDS011;8075;47.766;8.846;2024-01-11T00:28:14;45.90;;;26.15;;
15952;SDS011;8075;47.766;8.846;2024-01-11T00:30:40;44.63;;;25.20;;
15952;SDS011;8075;47.766;8.846;2024-01-11T00:33:06;45.00;;;25.70;;
15952;SDS011;8075;47.766;8.846;2024-01-11T00:35:32;41.30;;;24.30;;
15952;SDS011;8075;47.766;8.846;2024-01-11T00:37:58;41.72;;;24.65;;
15952;SDS011;8075;47.766;8.846;2024-01-11T00:40:24;41.10;;;24.60;;
15952;SDS011;8075;47.766;8.846;2024-01-11T00:42:50;43.92;;;25.85;;
15952;SDS011;8075;47.766;8.846;2024-01-11T00:45:16;41.70;;;25.35;;
15952;SDS011;8075;47.766;8.846;2024-01-11T00:47:43;44.35;;;25.52;;
15952;SDS011;8075;47.766;8.846;2024-01-11T00:50:09;41.75;;;25.10;;
15952;SDS011;8075;47.766;8.846;2024-01-11T00:52:35;41.40;;;24.98;;
15952;SDS011;8075;47.766;8.846;2024-01-11T00:55:01;42.83;;;25.80;;
15952;SDS011;8075;47.766;8.846;2024-01-11T00:57:27;43.33;;;26.38;;
15952;SDS011;8075;47.766;8.846;2024-01-11T00:59:53;45.20;;;26.13;;
15952;SDS011;8075;47.766;8.846;2024-01-11T01:02:19;47.87;;;27.40;;
15952;SDS011;8075;47.766;8.846;2024-01-11T01:04:46;43.53;;;26.25;;
15952;SDS011;8075;47.766;8.846;2024-01-11T01:07:11;38.72;;;24.75;;
15952;SDS011;8075;47.766;8.846;2024-01-11T01:09:37;41.00;;;24.77;;
15952;SDS011;8075;47.766;8.846;2024-01-11T01:12:04;40.63;;;24.73;;
15952;SDS011;8075;47.766;8.846;2024-01-11T01:14:30;41.22;;;24.65;;
15952;SDS011;8075;47.766;8.846;2024-01-11T01:16:56;43.42;;;25.23;;
15952;SDS011;8075;47.766;8.846;2024-01-11T01:19:22;39.88;;;24.92;;
15952;SDS011;8075;47.766;8.846;2024-01-11T01:21:48;42.17;;;25.98;;
15952;SDS011;8075;47.766;8.846;2024-01-11T01:24:14;40.83;;;24.73;;
15952;SDS011;8075;47.766;8.846;2024-01-11T01:26:40;39.03;;;24.02;;
15952;SDS011;8075;47.766;8.846;2024-01-11T01:29:06;45.35;;;26.48;;
15952;SDS011;8075;47.766;8.846;2024-01-11T01:31:32;46.27;;;25.77;;
15952;SDS011;8075;47.766;8.846;2024-01-11T01:34:02;46.75;;;26.73;;
15952;SDS011;8075;47.766;8.846;2024-01-11T01:36:29;46.40;;;26.70;;
15952;SDS011;8075;47.766;8.846;2024-01-11T01:38:55;47.45;;;25.85;;
15952;SDS011;8075;47.766;8.846;2024-01-11T01:41:21;42.67;;;25.38;;
15952;SDS011;8075;47.766;8.846;2024-01-11T01:43:47;44.85;;;25.88;;
15952;SDS011;8075;47.766;8.846;2024-01-11T01:46:13;44.20;;;26.53;;
15952;SDS011;8075;47.766;8.846;2024-01-11T01:48:43;48.80;;;27.38;;
15952;SDS011;8075;47.766;8.846;2024-01-11T01:51:09;45.65;;;25.83;;
15952;SDS011;8075;47.766;8.846;2024-01-11T01:53:35;49.75;;;28.55;;
15952;SDS011;8075;47.766;8.846;2024-01-11T01:56:02;53.08;;;29.02;;
15952;SDS011;8075;47.766;8.846;2024-01-11T01:58:28;48.97;;;27.40;;
15952;SDS011;8075;47.766;8.846;2024-01-11T02:00:54;49.55;;;27.63;;
15952;SDS011;8075;47.766;8.846;2024-01-11T02:03:20;49.47;;;28.23;;
15952;SDS011;8075;47.766;8.846;2024-01-11T02:05:47;52.47;;;28.23;;
15952;SDS011;8075;47.766;8.846;2024-01-11T02:08:15;50.97;;;29.55;;
15952;SDS011;8075;47.766;8.846;2024-01-11T02:10:42;53.25;;;29.23;;
15952;SDS011;8075;47.766;8.846;2024-01-11T02:13:09;50.95;;;28.13;;
15952;SDS011;8075;47.766;8.846;2024-01-11T02:15:35;50.47;;;28.93;;
15952;SDS011;8075;47.766;8.846;2024-01-11T02:18:01;57.25;;;30.85;;
15952;SDS011;8075;47.766;8.846;2024-01-11T02:20:27;53.38;;;29.40;;
15952;SDS011;8075;47.766;8.846;2024-01-11T02:22:54;52.25;;;29.30;;
15952;SDS011;8075;47.766;8.846;2024-01-11T02:25:22;56.63;;;30.70;;
15952;SDS011;8075;47.766;8.846;2024-01-11T02:27:48;55.85;;;30.10;;
15952;SDS011;8075;47.766;8.846;2024-01-11T02:30:14;56.38;;;30.45;;
15952;SDS011;8075;47.766;8.846;2024-01-11T02:32:41;53.97;;;29.67;;
15952;SDS011;8075;47.766;8.846;2024-01-11T02:35:09;54.20;;;28.63;;
15952;SDS011;8075;47.766;8.846;2024-01-11T02:37:36;51.33;;;27.77;;
15952;SDS011;8075;47.766;8.846;2024-01-11T02:40:04;50.03;;;28.10;;
15952;SDS011;8075;47.766;8.846;2024-01-11T02:42:30;49.95;;;27.30;;
15952;SDS011;8075;47.766;8.846;2024-01-11T02:44:56;46.63;;;27.07;;
15952;SDS011;8075;47.766;8.846;2024-01-11T02:47:22;47.95;;;27.13;;
15952;SDS011;8075;47.766;8.846;2024-01-11T02:49:48;44.95;;;26.52;;
15952;SDS011;8075;47.766;8.846;2024-01-11T02:52:14;46.67;;;26.83;;
15952;SDS011;8075;47.766;8.846;2024-01-11T02:54:40;48.63;;;26.85;;
15952;SDS011;8075;47.766;8.846;2024-01-11T02:57:06;44.05;;;25.60;;
15952;SDS011;8075;47.766;8.846;2024-01-11T02:59:32;46.22;;;26.58;;
15952;SDS011;8075;47.766;8.846;2024-01-11T03:01:58;48.05;;;27.38;;
15952;SDS011;8075;47.766;8.846;2024-01-11T03:04:24;49.60;;;26.45;;
15952;SDS011;8075;47.766;8.846;2024-01-11T03:06:50;45.05;;;26.08;;
15952;SDS011;8075;47.766;8.846;2024-01-11T03:09:16;44.88;;;25.85;;
15952;SDS011;8075;47.766;8.846;2024-01-11T03:11:42;45.08;;;25.50;;
15952;SDS011;8075;47.766;8.846;2024-01-11T03:14:08;42.13;;;25.80;;
15952;SDS011;8075;47.766;8.846;2024-01-11T03:16:34;42.47;;;24.80;;
15952;SDS011;8075;47.766;8.846;2024-01-11T03:19:00;41.37;;;24.30;;
15952;SDS011;8075;47.766;8.846;2024-01-11T03:21:27;40.83;;;24.13;;
15952;SDS011;8075;47.766;8.846;2024-01-11T03:23:53;42.63;;;25.02;;
15952;SDS011;8075;47.766;8.846;2024-01-11T03:26:19;42.38;;;24.35;;
15952;SDS011;8075;47.766;8.846;2024-01-11T03:28:45;43.30;;;25.03;;
15952;SDS011;8075;47.766;8.846;2024-01-11T03:31:11;41.85;;;24.35;;
15952;SDS011;8075;47.766;8.846;2024-01-11T03:33:37;40.92;;;24.85;;
15952;SDS011;8075;47.766;8.846;2024-01-11T03:36:07;40.55;;;23.85;;
15952;SDS011;8075;47.766;8.846;2024-01-11T03:38:33;40.00;;;24.08;;
15952;SDS011;8075;47.766;8.846;2024-01-11T03:40:59;41.20;;;22.95;;
15952;SDS011;8075;47.766;8.846;2024-01-11T03:43:25;41.47;;;23.58;;
15952;SDS011;8075;47.766;8.846;2024-01-11T03:45:51;42.75;;;24.15;;
15952;SDS011;8075;47.766;8.846;2024-01-11T03:48:17;40.42;;;23.77;;
15952;SDS011;8075;47.766;8.846;2024-01-11T03:50:43;39.85;;;23.55;;
15952;SDS011;8075;47.766;8.846;2024-01-11T03:53:09;39.50;;;23.17;;
15952;SDS011;8075;47.766;8.846;2024-01-11T03:55:35;36.80;;;22.40;;
15952;SDS011;8075;47.766;8.846;2024-01-11T03:58:01;36.42;;;22.02;;
15952;SDS011;8075;47.766;8.846;2024-01-11T04:00:27;37.10;;;21.70;;
15952;SDS011;8075;47.766;8.846;2024-01-11T04:02:53;37.20;;;22.63;;
15952;SDS011;8075;47.766;8.846;2024-01-11T04:05:19;37.75;;;22.08;;
15952;SDS011;8075;47.766;8.846;2024-01-11T04:07:45;34.97;;;21.35;;
15952;SDS011;8075;47.766;8.846;2024-01-11T04:10:11;37.60;;;21.73;;
15952;SDS011;8075;47.766;8.846;2024-01-11T04:12:37;34.72;;;21.25;;
15952;SDS011;8075;47.766;8.846;2024-01-11T04:15:03;36.20;;;22.00;;
15952;SDS011;8075;47.766;8.846;2024-01-11T04:17:29;37.38;;;22.88;;
15952;SDS011;8075;47.766;8.846;2024-01-11T04:19:55;37.37;;;22.37;;
15952;SDS011;8075;47.766;8.846;2024-01-11T04:22:21;36.72;;;21.52;;
15952;SDS011;8075;47.766;8.846;2024-01-11T04:24:47;36.07;;;22.10;;
15952;SDS011;8075;47.766;8.846;2024-01-11T04:27:13;35.65;;;21.08;;
15952;SDS011;8075;47.766;8.846;2024-01-11T04:29:39;37.95;;;21.77;;
15952;SDS011;8075;47.766;8.846;2024-01-11T04:32:05;37.25;;;22.25;;
15952;SDS011;8075;47.766;8.846;2024-01-11T04:34:31;35.85;;;22.02;;
15952;SDS011;8075;47.766;8.846;2024-01-11T04:36:57;33.20;;;21.25;;
15952;SDS011;8075;47.766;8.846;2024-01-11T04:39:23;36.40;;;21.63;;
15952;SDS011;8075;47.766;8.846;2024-01-11T04:41:49;31.92;;;19.77;;
15952;SDS011;8075;47.766;8.846;2024-01-11T04:44:15;33.88;;;20.90;;
15952;SDS011;8075;47.766;8.846;2024-01-11T04:46:41;33.90;;;20.70;;
15952;SDS011;8075;47.766;8.846;2024-01-11T04:49:07;34.15;;;21.33;;
15952;SDS011;8075;47.766;8.846;2024-01-11T04:51:33;35.88;;;22.08;;
15952;SDS011;8075;47.766;8.846;2024-01-11T04:53:59;34.30;;;21.80;;
15952;SDS011;8075;47.766;8.846;2024-01-11T04:56:26;32.53;;;21.00;;
15952;SDS011;8075;47.766;8.846;2024-01-11T04:58:52;35.00;;;21.27;;
15952;SDS011;8075;47.766;8.846;2024-01-11T05:01:18;34.15;;;21.00;;
15952;SDS011;8075;47.766;8.846;2024-01-11T05:03:44;31.38;;;20.38;;
15952;SDS011;8075;47.766;8.846;2024-01-11T05:06:17;34.65;;;20.70;;
15952;SDS011;8075;47.766;8.846;2024-01-11T05:08:44;32.78;;;20.25;;
15952;SDS011;8075;47.766;8.846;2024-01-11T05:11:19;33.45;;;19.98;;
15952;SDS011;8075;47.766;8.846;2024-01-11T05:13:46;33.78;;;20.50;;
15952;SDS011;8075;47.766;8.846;2024-01-11T05:16:20;33.42;;;21.70;;
15952;SDS011;8075;47.766;8.846;2024-01-11T05:18:46;32.03;;;20.75;;
15952;SDS011;8075;47.766;8.846;2024-01-11T05:21:12;34.70;;;21.77;;
15952;SDS011;8075;47.766;8.846;2024-01-11T05:23:38;34.08;;;20.40;;
15952;SDS011;8075;47.766;8.846;2024-01-11T05:26:05;32.80;;;20.45;;
15952;SDS011;8075;47.766;8.846;2024-01-11T05:28:31;33.47;;;20.38;;
15952;SDS011;8075;47.766;8.846;2024-01-11T05:30:57;34.92;;;20.55;;
15952;SDS011;8075;47.766;8.846;2024-01-11T05:33:23;33.65;;;20.42;;
15952;SDS011;8075;47.766;8.846;2024-01-11T05:35:49;31.20;;;19.33;;
15952;SDS011;8075;47.766;8.846;2024-01-11T05:38:15;30.48;;;19.77;;
15952;SDS011;8075;47.766;8.846;2024-01-11T05:40:41;36.10;;;24.25;;
15952;SDS011;8075;47.766;8.846;2024-01-11T05:43:07;37.78;;;23.38;;
15952;SDS011;8075;47.766;8.846;2024-01-11T05:45:34;34.13;;;21.58;;
15952;SDS011;8075;47.766;8.846;2024-01-11T05:48:00;37.28;;;21.92;;
15952;SDS011;8075;47.766;8.846;2024-01-11T05:50:26;41.70;;;23.67;;
15952;SDS011;8075;47.766;8.846;2024-01-11T05:52:52;46.15;;;26.05;;
15952;SDS011;8075;47.766;8.846;2024-01-11T05:55:21;36.65;;;22.08;;
15952;SDS011;8075;47.766;8.846;2024-01-11T05:57:48;37.00;;;22.05;;
15952;SDS011;8075;47.766;8.846;2024-01-11T06:00:14;37.50;;;23.35;;
15952;SDS011;8075;47.766;8.846;2024-01-11T06:02:40;37.65;;;22.33;;
15952;SDS011;8075;47.766;8.846;2024-01-11T06:05:09;32.88;;;20.98;;
15952;SDS011;8075;47.766;8.846;2024-01-11T06:07:37;32.80;;;20.45;;
15952;SDS011;8075;47.766;8.846;2024-01-11T06:10:03;33.47;;;20.98;;
15952;SDS011;8075;47.766;8.846;2024-01-11T06:12:30;35.58;;;21.05;;
15952;SDS011;8075;47.766;8.846;2024-01-11T06:14:56;34.03;;;20.27;;
15952;SDS011;8075;47.766;8.846;2024-01-11T06:17:23;32.13;;;20.38;;
15952;SDS011;8075;47.766;8.846;2024-01-11T06:19:49;33.92;;;21.30;;
15952;SDS011;8075;47.766;8.846;2024-01-11T06:22:15;37.50;;;23.80;;
15952;SDS011;8075;47.766;8.846;2024-01-11T06:24:41;34.38;;;23.02;;
15952;SDS011;8075;47.766;8.846;2024-01-11T06:27:07;36.45;;;22.45;;
15952;SDS011;8075;47.766;8.846;2024-01-11T06:29:33;34.38;;;21.83;;
15952;SDS011;8075;47.766;8.846;2024-01-11T06:31:59;34.83;;;21.23;;
15952;SDS011;8075;47.766;8.846;2024-01-11T06:34:25;35.92;;;21.83;;
15952;SDS011;8075;47.766;8.846;2024-01-11T06:36:51;32.92;;;20.45;;
15952;SDS011;8075;47.766;8.846;2024-01-11T06:39:17;38.25;;;22.35;;
15952;SDS011;8075;47.766;8.846;2024-01-11T06:41:43;38.28;;;22.77;;
15952;SDS011;8075;47.766;8.846;2024-01-11T06:44:09;40.22;;;23.90;;
15952;SDS011;8075;47.766;8.846;2024-01-11T06:46:35;43.90;;;24.65;;
15952;SDS011;8075;47.766;8.846;2024-01-11T06:49:04;44.67;;;25.08;;
15952;SDS011;8075;47.766;8.846;2024-01-11T06:51:30;52.58;;;27.48;;
15952;SDS011;8075;47.766;8.846;2024-01-11T06:53:56;48.85;;;27.13;;
15952;SDS011;8075;47.766;8.846;2024-01-11T06:56:22;48.92;;;28.13;;
15952;SDS011;8075;47.766;8.846;2024-01-11T06:58:49;52.17;;;28.67;;
15952;SDS011;8075;47.766;8.846;2024-01-11T07:01:15;44.80;;;26.30;;
15952;SDS011;8075;47.766;8.846;2024-01-11T07:03:41;53.72;;;28.23;;
15952;SDS011;8075;47.766;8.846;2024-01-11T07:06:07;48.78;;;27.25;;
15952;SDS011;8075;47.766;8.846;2024-01-11T07:08:33;50.20;;;27.98;;
15952;SDS011;8075;47.766;8.846;2024-01-11T07:11:00;48.30;;;27.90;;
15952;SDS011;8075;47.766;8.846;2024-01-11T07:13:27;50.47;;;27.77;;
15952;SDS011;8075;47.766;8.846;2024-01-11T07:15:53;51.40;;;29.45;;
15952;SDS011;8075;47.766;8.846;2024-01-11T07:18:20;58.38;;;29.65;;
15952;SDS011;8075;47.766;8.846;2024-01-11T07:20:46;54.28;;;29.75;;
15952;SDS011;8075;47.766;8.846;2024-01-11T07:23:13;52.95;;;29.33;;
15952;SDS011;8075;47.766;8.846;2024-01-11T07:25:39;53.70;;;29.08;;
15952;SDS011;8075;47.766;8.846;2024-01-11T07:28:06;55.03;;;30.00;;
15952;SDS011;8075;47.766;8.846;2024-01-11T07:30:32;49.75;;;28.10;;
15952;SDS011;8075;47.766;8.846;2024-01-11T07:32:58;57.28;;;30.80;;
15952;SDS011;8075;47.766;8.846;2024-01-11T07:35:24;57.15;;;30.52;;
15952;SDS011;8075;47.766;8.846;2024-01-11T07:37:50;57.30;;;30.92;;
15952;SDS011;8075;47.766;8.846;2024-01-11T07:40:16;57.27;;;30.60;;
15952;SDS011;8075;47.766;8.846;2024-01-11T07:42:42;56.38;;;31.85;;
15952;SDS011;8075;47.766;8.846;2024-01-11T07:45:09;52.92;;;29.05;;
15952;SDS011;8075;47.766;8.846;2024-01-11T07:47:35;57.75;;;31.73;;
15952;SDS011;8075;47.766;8.846;2024-01-11T07:50:04;57.28;;;32.05;;
15952;SDS011;8075;47.766;8.846;2024-01-11T07:52:31;57.10;;;31.15;;
15952;SDS011;8075;47.766;8.846;2024-01-11T07:54:57;57.72;;;31.30;;
15952;SDS011;8075;47.766;8.846;2024-01-11T07:57:31;56.28;;;30.52;;
15952;SDS011;8075;47.766;8.846;2024-01-11T07:59:57;57.15;;;29.90;;
15952;SDS011;8075;47.766;8.846;2024-01-11T08:02:24;52.88;;;29.63;;
15952;SDS011;8075;47.766;8.846;2024-01-11T08:04:50;59.70;;;31.60;;
15952;SDS011;8075;47.766;8.846;2024-01-11T08:07:16;60.20;;;31.75;;
15952;SDS011;8075;47.766;8.846;2024-01-11T08:09:42;59.83;;;32.72;;
15952;SDS011;8075;47.766;8.846;2024-01-11T08:12:14;59.33;;;31.90;;
15952;SDS011;8075;47.766;8.846;2024-01-11T08:14:40;64.63;;;33.10;;
15952;SDS011;8075;47.766;8.846;2024-01-11T08:17:11;62.28;;;32.50;;
15952;SDS011;8075;47.766;8.846;2024-01-11T08:19:38;57.05;;;31.45;;
15952;SDS011;8075;47.766;8.846;2024-01-11T08:22:05;58.50;;;31.73;;
15952;SDS011;8075;47.766;8.846;2024-01-11T08:24:31;55.10;;;30.20;;
15952;SDS011;8075;47.766;8.846;2024-01-11T08:26:57;58.47;;;30.48;;
15952;SDS011;8075;47.766;8.846;2024-01-11T08:29:23;51.20;;;28.85;;
15952;SDS011;8075;47.766;8.846;2024-01-11T08:31:50;55.05;;;29.77;;
15952;SDS011;8075;47.766;8.846;2024-01-11T08:34:16;52.72;;;29.20;;
15952;SDS011;8075;47.766;8.846;2024-01-11T08:36:42;52.88;;;29.40;;
15952;SDS011;8075;47.766;8.846;2024-01-11T08:39:08;52.20;;;28.98;;
15952;SDS011;8075;47.766;8.846;2024-01-11T08:41:36;54.17;;;28.58;;
15952;SDS011;8075;47.766;8.846;2024-01-11T08:44:05;50.40;;;28.58;;
15952;SDS011;8075;47.766;8.846;2024-01-11T08:46:31;51.72;;;28.70;;
15952;SDS011;8075;47.766;8.846;2024-01-11T08:49:00;50.50;;;27.95;;
15952;SDS011;8075;47.766;8.846;2024-01-11T08:51:28;52.47;;;29.92;;
15952;SDS011;8075;47.766;8.846;2024-01-11T08:53:54;52.45;;;29.45;;
15952;SDS011;8075;47.766;8.846;2024-01-11T08:56:20;53.25;;;30.27;;
15952;SDS011;8075;47.766;8.846;2024-01-11T08:58:46;55.33;;;30.67;;
15952;SDS011;8075;47.766;8.846;2024-01-11T09:01:13;53.35;;;29.27;;
15952;SDS011;8075;47.766;8.846;2024-01-11T09:03:39;54.63;;;29.53;;
15952;SDS011;8075;47.766;8.846;2024-01-11T09:06:05;50.67;;;29.50;;
15952;SDS011;8075;47.766;8.846;2024-01-11T09:08:31;55.85;;;30.40;;
15952;SDS011;8075;47.766;8.846;2024-01-11T09:10:57;53.47;;;29.75;;
15952;SDS011;8075;47.766;8.846;2024-01-11T09:13:24;54.60;;;30.00;;
15952;SDS011;8075;47.766;8.846;2024-01-11T09:15:53;54.25;;;30.65;;
15952;SDS011;8075;47.766;8.846;2024-01-11T09:18:19;52.22;;;30.40;;
15952;SDS011;8075;47.766;8.846;2024-01-11T09:20:45;51.90;;;29.48;;
15952;SDS011;8075;47.766;8.846;2024-01-11T09:23:12;57.15;;;31.17;;
15952;SDS011;8075;47.766;8.846;2024-01-11T09:25:38;52.38;;;29.67;;
15952;SDS011;8075;47.766;8.846;2024-01-11T09:28:04;57.63;;;31.25;;
15952;SDS011;8075;47.766;8.846;2024-01-11T09:30:30;55.83;;;30.58;;
15952;SDS011;8075;47.766;8.846;2024-01-11T09:32:56;58.40;;;31.55;;
15952;SDS011;8075;47.766;8.846;2024-01-11T09:35:23;55.95;;;31.08;;
15952;SDS011;8075;47.766;8.846;2024-01-11T09:37:49;54.08;;;30.98;;
15952;SDS011;8075;47.766;8.846;2024-01-11T09:40:15;57.40;;;31.00;;
15952;SDS011;8075;47.766;8.846;2024-01-11T09:42:42;56.47;;;30.23;;
15952;SDS011;8075;47.766;8.846;2024-01-11T09:45:17;57.80;;;31.60;;
15952;SDS011;8075;47.766;8.846;2024-01-11T09:47:43;63.65;;;32.55;;
15952;SDS011;8075;47.766;8.846;2024-01-11T09:50:10;55.60;;;29.60;;
15952;SDS011;8075;47.766;8.846;2024-01-11T09:52:42;55.78;;;29.38;;
15952;SDS011;8075;47.766;8.846;2024-01-11T09:55:11;55.33;;;29.15;;
15952;SDS011;8075;47.766;8.846;2024-01-11T09:57:38;55.67;;;29.33;;
15952;SDS011;8075;47.766;8.846;2024-01-11T10:00:07;54.97;;;28.50;;
15952;SDS011;8075;47.766;8.846;2024-01-11T10:02:34;53.80;;;28.85;;
15952;SDS011;8075;47.766;8.846;2024-01-11T10:05:00;43.70;;;25.25;;
15952;SDS011;8075;47.766;8.846;2024-01-11T10:07:26;44.72;;;26.08;;
15952;SDS011;8075;47.766;8.846;2024-01-11T10:09:53;45.70;;;24.52;;
15952;SDS011;8075;47.766;8.846;2024-01-11T10:12:20;44.53;;;24.05;;
15952;SDS011;8075;47.766;8.846;2024-01-11T10:14:49;45.13;;;23.77;;
15952;SDS011;8075;47.766;8.846;2024-01-11T10:17:16;46.97;;;24.30;;
15952;SDS011;8075;47.766;8.846;2024-01-11T10:19:42;42.85;;;23.70;;
15952;SDS011;8075;47.766;8.846;2024-01-11T10:22:08;45.53;;;24.05;;
15952;SDS011;8075;47.766;8.846;2024-01-11T10:24:38;42.35;;;24.30;;
15952;SDS011;8075;47.766;8.846;2024-01-11T10:27:04;43.95;;;24.10;;
15952;SDS011;8075;47.766;8.846;2024-01-11T10:29:31;43.63;;;23.40;;
15952;SDS011;8075;47.766;8.846;2024-01-11T10:31:57;43.60;;;22.90;;
15952;SDS011;8075;47.766;8.846;2024-01-11T10:34:24;42.65;;;23.60;;
15952;SDS011;8075;47.766;8.846;2024-01-11T10:36:53;41.97;;;22.02;;
15952;SDS011;8075;47.766;8.846;2024-01-11T10:39:20;40.67;;;22.23;;
15952;SDS011;8075;47.766;8.846;2024-01-11T10:41:50;40.17;;;21.92;;
15952;SDS011;8075;47.766;8.846;2024-01-11T10:44:20;46.35;;;24.55;;
15952;SDS011;8075;47.766;8.846;2024-01-11T10:46:47;44.58;;;23.15;;
15952;SDS011;8075;47.766;8.846;2024-01-11T10:49:15;40.33;;;22.45;;
15952;SDS011;8075;47.766;8.846;2024-01-11T10:51:43;44.77;;;23.03;;
15952;SDS011;8075;47.766;8.846;2024-01-11T10:54:11;41.53;;;22.30;;
15952;SDS011;8075;47.766;8.846;2024-01-11T10:56:39;44.47;;;23.65;;
15952;SDS011;8075;47.766;8.846;2024-01-11T10:59:08;39.97;;;22.25;;
15952;SDS011;8075;47.766;8.846;2024-01-11T11:01:35;43.28;;;22.92;;
15952;SDS011;8075;47.766;8.846;2024-01-11T11:04:01;41.75;;;22.35;;
15952;SDS011;8075;47.766;8.846;2024-01-11T11:06:28;45.15;;;21.95;;
15952;SDS011;8075;47.766;8.846;2024-01-11T11:08:55;44.78;;;22.55;;
15952;SDS011;8075;47.766;8.846;2024-01-11T11:11:21;43.67;;;22.02;;
15952;SDS011;8075;47.766;8.846;2024-01-11T11:13:47;43.03;;;22.55;;
15952;SDS011;8075;47.766;8.846;2024-01-11T11:16:16;45.08;;;23.27;;
15952;SDS011;8075;47.766;8.846;2024-01-11T11:18:42;43.75;;;23.20;;
15952;SDS011;8075;47.766;8.846;2024-01-11T11:21:09;42.67;;;22.65;;
15952;SDS011;8075;47.766;8.846;2024-01-11T11:23:36;43.92;;;23.17;;
15952;SDS011;8075;47.766;8.846;2024-01-11T11:26:02;37.67;;;21.13;;
15952;SDS011;8075;47.766;8.846;2024-01-11T11:28:32;39.37;;;21.50;;
15952;SDS011;8075;47.766;8.846;2024-01-11T11:30:59;42.78;;;21.05;;
15952;SDS011;8075;47.766;8.846;2024-01-11T11:33:27;39.63;;;20.88;;
15952;SDS011;8075;47.766;8.846;2024-01-11T11:35:59;40.72;;;22.17;;
15952;SDS011;8075;47.766;8.846;2024-01-11T11:38:28;40.63;;;21.73;;
15952;SDS011;8075;47.766;8.846;2024-01-11T11:40:55;39.47;;;22.30;;
15952;SDS011;8075;47.766;8.846;2024-01-11T11:43:22;40.17;;;21.00;;
15952;SDS011;8075;47.766;8.846;2024-01-11T11:45:49;42.22;;;22.27;;
15952;SDS011;8075;47.766;8.846;2024-01-11T11:51:11;38.30;;;20.55;;
15952;SDS011;8075;47.766;8.846;2024-01-11T11:53:37;38.15;;;20.63;;
15952;SDS011;8075;47.766;8.846;2024-01-11T11:56:03;37.03;;;20.58;;
15952;SDS011;8075;47.766;8.846;2024-01-11T11:58:30;36.53;;;20.77;;
15952;SDS011;8075;47.766;8.846;2024-01-11T12:00:57;40.22;;;21.63;;
15952;SDS011;8075;47.766;8.846;2024-01-11T12:03:25;38.38;;;20.88;;
15952;SDS011;8075;47.766;8.846;2024-01-11T12:05:51;37.95;;;20.42;;
15952;SDS011;8075;47.766;8.846;2024-01-11T12:08:17;37.03;;;19.75;;
15952;SDS011;8075;47.766;8.846;2024-01-11T12:10:43;40.40;;;21.85;;
15952;SDS011;8075;47.766;8.846;2024-01-11T12:13:09;40.78;;;22.23;;
15952;SDS011;8075;47.766;8.846;2024-01-11T12:15:35;39.95;;;22.17;;
15952;SDS011;8075;47.766;8.846;2024-01-11T12:18:01;41.97;;;22.67;;
15952;SDS011;8075;47.766;8.846;2024-01-11T12:20:28;45.90;;;23.50;;
15952;SDS011;8075;47.766;8.846;2024-01-11T12:22:54;49.28;;;24.85;;
15952;SDS011;8075;47.766;8.846;2024-01-11T12:25:20;47.33;;;24.70;;
15952;SDS011;8075;47.766;8.846;2024-01-11T12:27:47;45.13;;;24.33;;
15952;SDS011;8075;47.766;8.846;2024-01-11T12:30:13;47.97;;;25.45;;
15952;SDS011;8075;47.766;8.846;2024-01-11T12:32:42;48.05;;;24.80;;
15952;SDS011;8075;47.766;8.846;2024-01-11T12:35:08;44.25;;;24.15;;
15952;SDS011;8075;47.766;8.846;2024-01-11T12:37:34;43.72;;;22.30;;
15952;SDS011;8075;47.766;8.846;2024-01-11T12:40:00;39.85;;;21.58;;
15952;SDS011;8075;47.766;8.846;2024-01-11T12:42:27;41.40;;;21.30;;
15952;SDS011;8075;47.766;8.846;2024-01-11T12:44:53;37.83;;;21.52;;
15952;SDS011;8075;47.766;8.846;2024-01-11T12:47:19;43.50;;;22.33;;
15952;SDS011;8075;47.766;8.846;2024-01-11T12:49:45;45.10;;;21.95;;
15952;SDS011;8075;47.766;8.846;2024-01-11T12:52:18;40.72;;;21.83;;
15952;SDS011;8075;47.766;8.846;2024-01-11T12:54:44;41.10;;;22.00;;
15952;SDS011;8075;47.766;8.846;2024-01-11T12:57:20;43.40;;;23.70;;
15952;SDS011;8075;47.766;8.846;2024-01-11T12:59:46;50.33;;;26.23;;
15952;SDS011;8075;47.766;8.846;2024-01-11T13:02:13;47.85;;;23.95;;
15952;SDS011;8075;47.766;8.846;2024-01-11T13:04:39;48.28;;;23.92;;
15952;SDS011;8075;47.766;8.846;2024-01-11T13:07:06;49.78;;;24.85;;
15952;SDS011;8075;47.766;8.846;2024-01-11T13:09:32;50.42;;;25.52;;
15952;SDS011;8075;47.766;8.846;2024-01-11T13:11:58;52.73;;;26.37;;
15952;SDS011;8075;47.766;8.846;2024-01-11T13:14:25;53.13;;;26.85;;
15952;SDS011;8075;47.766;8.846;2024-01-11T13:16:51;52.53;;;26.45;;
15952;SDS011;8075;47.766;8.846;2024-01-11T13:19:17;50.08;;;25.88;;
15952;SDS011;8075;47.766;8.846;2024-01-11T13:21:43;59.53;;;29.13;;
15952;SDS011;8075;47.766;8.846;2024-01-11T13:24:09;58.25;;;28.13;;
15952;SDS011;8075;47.766;8.846;2024-01-11T13:26:35;54.97;;;28.43;;
15952;SDS011;8075;47.766;8.846;2024-01-11T13:29:02;59.28;;;29.58;;
15952;SDS011;8075;47.766;8.846;2024-01-11T13:31:28;61.42;;;28.90;;
15952;SDS011;8075;47.766;8.846;2024-01-11T13:33:54;62.50;;;29.58;;
15952;SDS011;8075;47.766;8.846;2024-01-11T13:36:21;59.58;;;29.55;;
15952;SDS011;8075;47.766;8.846;2024-01-11T13:38:48;60.00;;;29.42;;
15952;SDS011;8075;47.766;8.846;2024-01-11T13:41:18;57.53;;;29.17;;
15952;SDS011;8075;47.766;8.846;2024-01-11T13:43:44;58.85;;;28.98;;
15952;SDS011;8075;47.766;8.846;2024-01-11T13:46:10;57.83;;;28.35;;
15952;SDS011;8075;47.766;8.846;2024-01-11T13:48:38;58.20;;;28.63;;
15952;SDS011;8075;47.766;8.846;2024-01-11T13:51:04;56.85;;;28.88;;
15952;SDS011;8075;47.766;8.846;2024-01-11T13:53:30;59.40;;;29.73;;
15952;SDS011;8075;47.766;8.846;2024-01-11T13:55:56;60.13;;;28.58;;
15952;SDS011;8075;47.766;8.846;2024-01-11T13:58:22;59.55;;;28.80;;
15952;SDS011;8075;47.766;8.846;2024-01-11T14:00:48;57.33;;;29.23;;
15952;SDS011;8075;47.766;8.846;2024-01-11T14:03:14;61.67;;;29.30;;
15952;SDS011;8075;47.766;8.846;2024-01-11T14:05:40;60.42;;;28.45;;
15952;SDS011;8075;47.766;8.846;2024-01-11T14:08:06;61.55;;;30.30;;
15952;SDS011;8075;47.766;8.846;2024-01-11T14:10:33;53.13;;;27.30;;
15952;SDS011;8075;47.766;8.846;2024-01-11T14:12:59;57.33;;;29.27;;
15952;SDS011;8075;47.766;8.846;2024-01-11T14:15:26;52.42;;;27.17;;
15952;SDS011;8075;47.766;8.846;2024-01-11T14:17:52;55.50;;;27.92;;
15952;SDS011;8075;47.766;8.846;2024-01-11T14:20:19;60.05;;;29.10;;
15952;SDS011;8075;47.766;8.846;2024-01-11T14:22:46;48.95;;;25.95;;
15952;SDS011;8075;47.766;8.846;2024-01-11T14:25:14;48.42;;;25.17;;
15952;SDS011;8075;47.766;8.846;2024-01-11T14:27:40;46.25;;;24.38;;
15952;SDS011;8075;47.766;8.846;2024-01-11T14:30:07;48.92;;;24.58;;
15952;SDS011;8075;47.766;8.846;2024-01-11T14:32:34;49.58;;;23.73;;